Flag Center, Illinois
Current Conditions -  °F | °C
As of 6:55 AM on Thursday 27 Nov 2014 (Local Time) from KRPJ Reporting Station
Overcast Overcast  
Wind Chill: 14°   Ceiling: 2600
Heat Index: 22°   Visibility: 7mi
Dew Point: 19°   Wind: 7mph
Humidity: 89%   Direction: 290°WNW
Pressure: 30.32"   Gusts: NA
Location:  41.9424°N, 89.0653°W
Report Text: KRPJ 271255Z AUTO 29006KT 7SM OVC026 M05/M07 A3032 RMK AO2 T10541070
Loading
Personal Weather Stations






























Interactive Weather Map New forecast layout! Learn more

10-Day Weather Forecast

Advertisements
Track Severe Weather on mobile